Time;durP1;ratioP1;P1;durP2;ratioP2;P2;SDS_P1;SDS_P2;PMS_P1;PMS_P2;Temp;Humidity;BMP_temperature;BMP_pressure;BME280_temperature;BME280_humidity;BME280_pressure;Samples;Min_cycle;Max_cycle;Signal;HPM_P1;HPM_P2
2024/04/14 00:01:57;;;;;;;25.35;18.30;;;9.20;99.90;;;;;;5370830;26;19993;-79
2024/04/14 00:04:22;;;;;;;26.27;17.92;;;9.20;99.90;;;;;;5377489;26;20004;-79
2024/04/14 00:06:49;;;;;;;26.98;16.90;;;9.20;99.90;;;;;;5382733;26;20338;-80
2024/04/14 00:09:14;;;;;;;25.00;17.25;;;9.20;99.90;;;;;;5381963;26;20019;-80
2024/04/14 00:11:40;;;;;;;29.05;18.08;;;9.20;99.90;;;;;;5380493;26;20009;-80
2024/04/14 00:14:06;;;;;;;22.92;17.65;;;9.20;99.90;;;;;;5380034;26;20030;-79
2024/04/14 00:16:31;;;;;;;24.60;16.30;;;9.10;99.90;;;;;;5354014;26;20077;-79
2024/04/14 00:18:57;;;;;;;24.40;16.50;;;9.20;99.90;;;;;;5378273;26;20012;-79
2024/04/14 00:21:23;;;;;;;22.13;15.80;;;9.20;99.90;;;;;;5382083;26;20681;-78
2024/04/14 00:23:48;;;;;;;23.88;17.38;;;9.20;99.90;;;;;;5379622;26;20005;-78
2024/04/14 00:26:14;;;;;;;23.95;16.63;;;9.10;99.90;;;;;;5380551;26;20410;-78
2024/04/14 00:28:40;;;;;;;22.52;15.85;;;9.20;99.90;;;;;;5382815;26;20019;-78
2024/04/14 00:31:06;;;;;;;24.10;17.23;;;9.10;99.90;;;;;;5381528;26;20019;-77
2024/04/14 00:33:34;;;;;;;27.38;19.67;;;9.20;99.90;;;;;;5377429;26;20009;-78
2024/04/14 00:36:01;;;;;;;26.80;19.85;;;9.20;99.90;;;;;;5362486;26;20016;-78
2024/04/14 00:38:27;;;;;;;27.52;18.70;;;9.20;99.90;;;;;;5353009;26;20008;-78
2024/04/14 00:40:52;;;;;;;30.52;19.52;;;9.10;99.90;;;;;;5365562;26;20399;-78
2024/04/14 00:43:18;;;;;;;29.70;20.65;;;9.10;99.90;;;;;;5382271;26;20000;-78
2024/04/14 00:45:44;;;;;;;32.08;22.70;;;9.00;99.90;;;;;;5365648;26;20347;-78
2024/04/14 00:48:11;;;;;;;32.95;21.65;;;8.90;99.90;;;;;;5381840;26;20000;-78
2024/04/14 00:50:38;;;;;;;26.15;20.02;;;8.80;99.90;;;;;;5365675;26;20020;-78
2024/04/14 00:53:04;;;;;;;37.13;26.40;;;8.80;99.90;;;;;;5379347;26;20004;-78
2024/04/14 00:55:30;;;;;;;36.90;23.60;;;8.70;99.90;;;;;;5382419;26;20019;-78
2024/04/14 00:57:57;;;;;;;35.45;21.58;;;8.70;99.90;;;;;;5382712;26;20006;-78
2024/04/14 01:00:24;;;;;;;30.27;21.92;;;8.70;99.90;;;;;;5380092;26;20043;-78
2024/04/14 01:02:53;;;;;;;28.92;20.17;;;8.70;99.90;;;;;;5381526;26;20005;-79
2024/04/14 01:05:21;;;;;;;30.25;20.67;;;8.60;99.90;;;;;;5380022;26;20081;-79
2024/04/14 01:07:47;;;;;;;33.67;21.92;;;8.70;99.90;;;;;;5381887;26;20011;-79
2024/04/14 01:10:13;;;;;;;32.03;21.90;;;8.70;99.90;;;;;;5381852;26;20040;-79
2024/04/14 01:12:38;;;;;;;30.50;21.25;;;8.60;99.90;;;;;;5381289;26;20427;-79
2024/04/14 01:15:04;;;;;;;31.10;21.58;;;8.70;99.90;;;;;;5379680;26;20000;-79
2024/04/14 01:17:30;;;;;;;34.95;20.90;;;8.60;99.90;;;;;;5379100;26;20001;-79
2024/04/14 01:19:55;;;;;;;33.67;21.10;;;8.70;99.90;;;;;;5381419;26;20004;-79
2024/04/14 01:22:21;;;;;;;29.52;21.65;;;8.70;99.90;;;;;;5357985;26;20008;-79
2024/04/14 01:24:49;;;;;;;27.52;20.10;;;8.70;99.90;;;;;;5378179;26;20454;-79
2024/04/14 01:27:15;;;;;;;28.65;19.83;;;8.70;99.90;;;;;;5380705;26;20015;-80
2024/04/14 01:29:41;;;;;;;29.73;19.95;;;8.70;99.90;;;;;;5369174;26;20005;-79
2024/04/14 01:32:06;;;;;;;29.38;20.33;;;8.60;99.90;;;;;;5346599;26;20394;-78
2024/04/14 01:34:32;;;;;;;32.28;19.92;;;8.70;99.90;;;;;;5379444;26;19996;-77
2024/04/14 01:36:57;;;;;;;29.83;20.00;;;8.60;99.90;;;;;;5381158;26;20032;-77
2024/04/14 01:39:23;;;;;;;31.02;19.73;;;8.70;99.90;;;;;;5356267;26;20015;-77
2024/04/14 01:41:49;;;;;;;24.90;19.10;;;8.70;99.90;;;;;;5357443;26;20078;-77
2024/04/14 01:44:14;;;;;;;25.10;18.95;;;8.70;99.90;;;;;;5378391;26;20010;-79
2024/04/14 01:46:40;;;;;;;28.45;20.13;;;8.70;99.90;;;;;;5374586;26;20347;-79
2024/04/14 01:49:06;;;;;;;31.90;21.75;;;8.60;99.90;;;;;;5350703;26;20445;-78
2024/04/14 01:51:32;;;;;;;30.00;21.60;;;8.60;99.90;;;;;;5372576;26;20044;-78
2024/04/14 01:53:57;;;;;;;28.65;19.55;;;8.60;99.90;;;;;;5370111;26;20015;-79
2024/04/14 01:56:23;;;;;;;26.80;19.58;;;8.60;99.90;;;;;;5364843;26;20442;-79
2024/04/14 01:58:49;;;;;;;27.33;19.55;;;8.60;99.90;;;;;;5348421;26;20460;-79
2024/04/14 02:01:15;;;;;;;28.58;17.67;;;8.60;99.90;;;;;;5353744;26;19998;-78
2024/04/14 02:03:41;;;;;;;26.45;18.65;;;8.60;99.90;;;;;;5365166;26;20346;-78
2024/04/14 02:06:07;;;;;;;24.50;18.40;;;8.50;99.90;;;;;;5370373;26;20138;-79
2024/04/14 02:08:33;;;;;;;28.77;20.08;;;8.50;99.90;;;;;;5379318;26;20037;-78
2024/04/14 02:11:02;;;;;;;31.65;20.55;;;8.50;99.90;;;;;;5377030;26;20005;-79
2024/04/14 02:13:28;;;;;;;32.13;21.45;;;8.50;99.90;;;;;;5377547;26;20003;-78
2024/04/14 02:15:54;;;;;;;27.52;20.02;;;8.50;99.90;;;;;;5380441;26;20008;-78
2024/04/14 02:18:19;;;;;;;30.70;20.30;;;8.40;99.90;;;;;;5378690;26;20000;-78
2024/04/14 02:20:45;;;;;;;28.65;19.92;;;8.50;99.90;;;;;;5380003;26;20473;-79
2024/04/14 02:23:10;;;;;;;34.22;20.27;;;8.50;99.90;;;;;;5378294;26;20020;-79
2024/04/14 02:25:36;;;;;;;32.35;21.58;;;8.50;99.90;;;;;;5380674;26;20008;-78
2024/04/14 02:28:03;;;;;;;28.85;21.33;;;8.50;99.90;;;;;;5378187;26;20077;-78
2024/04/14 02:30:28;;;;;;;36.35;21.35;;;8.40;99.90;;;;;;5380716;26;20005;-78
2024/04/14 02:32:54;;;;;;;32.45;20.63;;;8.40;99.90;;;;;;5377615;26;20374;-77
2024/04/14 02:35:20;;;;;;;26.77;19.25;;;8.40;99.90;;;;;;5380109;26;20008;-78
2024/04/14 02:37:45;;;;;;;29.00;20.27;;;8.40;99.90;;;;;;5380410;26;20319;-78
2024/04/14 02:40:12;;;;;;;31.48;20.13;;;8.50;99.90;;;;;;5380351;26;20019;-78
2024/04/14 02:42:37;;;;;;;31.30;21.08;;;8.40;99.90;;;;;;5380019;26;20441;-79
2024/04/14 02:45:03;;;;;;;27.52;20.40;;;8.40;99.90;;;;;;5379349;26;20019;-79
2024/04/14 02:47:29;;;;;;;26.90;19.65;;;8.30;99.90;;;;;;5375411;26;20023;-79
2024/04/14 02:49:55;;;;;;;28.95;19.40;;;8.30;99.90;;;;;;5367576;26;20001;-79
2024/04/14 02:52:21;;;;;;;26.80;18.02;;;8.20;99.90;;;;;;5378660;26;19996;-79
2024/04/14 02:54:46;;;;;;;22.08;16.88;;;8.10;99.90;;;;;;5377900;26;20000;-79
2024/04/14 02:57:13;;;;;;;27.55;18.67;;;8.10;99.90;;;;;;5375360;26;20011;-79
2024/04/14 02:59:39;;;;;;;25.85;18.27;;;8.10;99.90;;;;;;5428071;26;20171;-79
2024/04/14 03:02:05;;;;;;;26.55;18.88;;;8.00;99.90;;;;;;5380845;26;19996;-79
2024/04/14 03:04:31;;;;;;;27.42;19.73;;;8.00;99.90;;;;;;5383835;26;20066;-79
2024/04/14 03:06:56;;;;;;;37.33;20.98;;;8.10;99.90;;;;;;5383040;26;20476;-79
2024/04/14 03:09:22;;;;;;;33.85;19.55;;;8.10;99.90;;;;;;5358594;26;20005;-79
2024/04/14 03:11:48;;;;;;;28.92;19.83;;;8.00;99.90;;;;;;5362197;26;20005;-78
2024/04/14 03:14:13;;;;;;;30.52;20.17;;;8.00;99.90;;;;;;5383308;26;20015;-78
2024/04/14 03:16:39;;;;;;;26.60;18.38;;;8.00;99.90;;;;;;5382816;26;20333;-79
2024/04/14 03:19:05;;;;;;;35.80;21.50;;;8.00;99.90;;;;;;5382831;26;20012;-78
2024/04/14 03:21:30;;;;;;;27.63;19.20;;;8.00;99.90;;;;;;5366379;26;20001;-78
2024/04/14 03:23:56;;;;;;;27.88;19.08;;;8.00;99.90;;;;;;5372256;26;20008;-79
2024/04/14 03:26:21;;;;;;;28.00;19.80;;;8.00;99.90;;;;;;5372843;26;20001;-79
2024/04/14 03:28:47;;;;;;;29.95;19.55;;;8.00;99.90;;;;;;5383547;26;20330;-77
2024/04/14 03:31:13;;;;;;;25.83;19.55;;;8.00;99.90;;;;;;5383146;26;20001;-77
2024/04/14 03:33:38;;;;;;;30.27;21.13;;;8.00;99.90;;;;;;5360898;26;20005;-78
2024/04/14 03:36:06;;;;;;;34.95;25.20;;;7.90;99.90;;;;;;5363171;26;20085;-77
2024/04/14 03:38:32;;;;;;;32.25;23.55;;;7.90;99.90;;;;;;5382814;26;20000;-77
2024/04/14 03:40:58;;;;;;;32.05;21.80;;;7.90;99.90;;;;;;5380933;26;20319;-78
2024/04/14 03:43:24;;;;;;;32.00;21.33;;;7.80;99.90;;;;;;5383125;26;20007;-77
2024/04/14 03:45:50;;;;;;;33.58;21.40;;;7.80;99.90;;;;;;5381164;26;20008;-77
2024/04/14 03:48:16;;;;;;;27.17;20.20;;;7.80;99.90;;;;;;5359740;26;20001;-77
2024/04/14 03:50:41;;;;;;;26.98;18.83;;;7.80;99.90;;;;;;5356686;26;20442;-77
2024/04/14 03:53:07;;;;;;;27.33;18.88;;;7.80;99.90;;;;;;5382535;26;20441;-77
2024/04/14 03:55:33;;;;;;;28.23;20.17;;;7.80;99.90;;;;;;5381491;26;20011;-77
2024/04/14 03:57:59;;;;;;;27.70;20.20;;;7.80;99.90;;;;;;5382292;26;20184;-77
2024/04/14 04:00:24;;;;;;;25.60;18.48;;;7.80;99.90;;;;;;5380834;26;20028;-78
2024/04/14 04:02:50;;;;;;;26.63;19.45;;;7.80;99.90;;;;;;5365043;26;20336;-77
2024/04/14 04:05:16;;;;;;;27.65;19.33;;;7.90;99.90;;;;;;5361001;26;20023;-78
2024/04/14 04:07:42;;;;;;;29.08;18.88;;;7.90;99.90;;;;;;5362787;26;20015;-77
2024/04/14 04:10:07;;;;;;;25.50;18.85;;;7.90;99.90;;;;;;5359569;26;20000;-77
2024/04/14 04:12:34;;;;;;;26.67;19.23;;;7.90;99.90;;;;;;5370367;26;20008;-78
2024/04/14 04:14:59;;;;;;;23.17;19.08;;;7.90;99.90;;;;;;5374851;26;20334;-78
2024/04/14 04:17:25;;;;;;;24.17;18.10;;;7.90;99.90;;;;;;5379918;26;20014;-78
2024/04/14 04:19:51;;;;;;;25.48;18.17;;;8.00;99.90;;;;;;5375477;26;20041;-79
2024/04/14 04:22:16;;;;;;;28.35;18.38;;;8.00;99.90;;;;;;5380750;26;20010;-80
2024/04/14 04:24:42;;;;;;;23.02;17.17;;;8.00;99.90;;;;;;5409848;26;20073;-79
2024/04/14 04:27:08;;;;;;;24.83;17.60;;;8.00;99.90;;;;;;5373598;26;20025;-78
2024/04/14 04:29:34;;;;;;;24.40;17.15;;;8.10;99.90;;;;;;5381439;26;20005;-79
2024/04/14 04:32:00;;;;;;;26.85;18.15;;;8.10;99.90;;;;;;5380608;26;20000;-78
2024/04/14 04:34:25;;;;;;;28.05;20.13;;;8.20;99.90;;;;;;5357916;26;20028;-77
2024/04/14 04:36:51;;;;;;;22.13;17.40;;;8.20;99.90;;;;;;5379840;26;20449;-78
2024/04/14 04:39:20;;;;;;;31.63;19.95;;;8.30;99.90;;;;;;5379705;26;20008;-78
2024/04/14 04:41:45;;;;;;;27.00;19.08;;;8.30;99.90;;;;;;5379431;26;20020;-77
2024/04/14 04:44:11;;;;;;;27.60;19.27;;;8.30;99.90;;;;;;5378485;26;20452;-78
2024/04/14 04:46:37;;;;;;;31.75;19.40;;;8.30;99.90;;;;;;5379941;26;20011;-78
2024/04/14 04:49:03;;;;;;;29.05;18.83;;;8.40;99.90;;;;;;5377782;26;20009;-78
2024/04/14 04:51:29;;;;;;;26.50;18.88;;;8.40;99.90;;;;;;5376304;26;20004;-78
2024/04/14 04:53:55;;;;;;;29.65;19.98;;;8.50;99.90;;;;;;5381365;26;20020;-78
2024/04/14 04:56:20;;;;;;;26.98;19.10;;;8.60;99.90;;;;;;5379555;26;20464;-78
2024/04/14 04:58:46;;;;;;;29.80;19.17;;;8.60;99.90;;;;;;5353761;26;20000;-77
2024/04/14 05:01:12;;;;;;;23.15;17.42;;;8.70;99.90;;;;;;5381613;26;20008;-78
2024/04/14 05:03:38;;;;;;;25.33;18.58;;;8.80;99.90;;;;;;5385119;26;20338;-78
2024/04/14 05:06:05;;;;;;;23.45;17.80;;;8.90;99.90;;;;;;5380293;26;20008;-78
2024/04/14 05:08:32;;;;;;;21.00;16.88;;;8.90;99.90;;;;;;5376316;26;20449;-77
2024/04/14 05:10:59;;;;;;;27.05;18.02;;;9.00;99.90;;;;;;5379681;26;20012;-77
2024/04/14 05:13:25;;;;;;;26.40;17.33;;;9.10;99.90;;;;;;5381982;26;20000;-76
2024/04/14 05:15:52;;;;;;;23.98;17.33;;;9.30;99.90;;;;;;5382061;26;20016;-76
2024/04/14 05:18:17;;;;;;;25.80;18.23;;;9.50;99.90;;;;;;5381322;26;20008;-77
2024/04/14 05:20:44;;;;;;;23.40;18.25;;;9.60;99.90;;;;;;5379483;26;20015;-77
2024/04/14 05:23:10;;;;;;;26.73;18.95;;;9.80;99.90;;;;;;5380505;26;20122;-77
2024/04/14 05:25:36;;;;;;;25.08;18.17;;;10.00;99.90;;;;;;5379317;26;20012;-77
2024/04/14 05:28:03;;;;;;;24.15;17.88;;;10.20;99.90;;;;;;5374051;26;20009;-77
2024/04/14 05:30:28;;;;;;;26.65;17.60;;;10.40;99.90;;;;;;5364050;26;20028;-77
2024/04/14 05:32:57;;;;;;;22.40;16.88;;;10.60;99.90;;;;;;5374130;26;20040;-77
2024/04/14 05:35:22;;;;;;;25.38;18.33;;;10.70;99.90;;;;;;5368430;26;20019;-77
2024/04/14 05:37:48;;;;;;;23.17;17.17;;;10.90;99.90;;;;;;5380425;26;20365;-79
2024/04/14 05:40:14;;;;;;;26.17;18.23;;;11.00;99.90;;;;;;5378716;26;20319;-79
2024/04/14 05:42:40;;;;;;;25.60;17.83;;;11.20;99.90;;;;;;5378681;26;20000;-79
2024/04/14 05:45:08;;;;;;;31.48;18.27;;;11.40;99.90;;;;;;5380440;26;20030;-77
2024/04/14 05:47:34;;;;;;;42.95;23.30;;;11.50;99.90;;;;;;5378481;26;20000;-80
2024/04/14 05:49:59;;;;;;;42.72;23.40;;;11.60;99.90;;;;;;5378383;26;20007;-78
2024/04/14 05:52:25;;;;;;;42.70;22.55;;;11.60;99.90;;;;;;5381436;26;20396;-81
2024/04/14 05:54:51;;;;;;;30.98;19.90;;;11.80;99.90;;;;;;5378904;26;20461;-81
2024/04/14 05:57:17;;;;;;;45.30;22.50;;;11.90;99.90;;;;;;5372536;26;20368;-80
2024/04/14 05:59:45;;;;;;;44.53;22.90;;;12.00;99.90;;;;;;5356414;26;20005;-81
2024/04/14 06:02:12;;;;;;;47.67;23.73;;;12.20;99.90;;;;;;5378545;26;20012;-79
2024/04/14 06:04:37;;;;;;;37.85;21.95;;;12.30;99.90;;;;;;5376459;26;20004;-77
2024/04/14 06:07:03;;;;;;;55.03;26.00;;;12.40;99.90;;;;;;5378211;26;20023;-79
2024/04/14 06:09:29;;;;;;;46.20;22.48;;;12.60;99.90;;;;;;5376170;26;20020;-77
2024/04/14 06:11:55;;;;;;;54.97;24.25;;;12.70;99.90;;;;;;5362290;26;20020;-79
2024/04/14 06:14:22;;;;;;;31.77;17.80;;;12.80;99.90;;;;;;5352938;26;20023;-78
2024/04/14 06:16:47;;;;;;;67.22;28.90;;;13.00;99.90;;;;;;5381015;26;20012;-80
2024/04/14 06:19:13;;;;;;;38.88;19.58;;;13.10;99.90;;;;;;5379997;26;20439;-80
2024/04/14 06:21:38;;;;;;;45.30;22.92;;;13.30;99.90;;;;;;5377748;26;20052;-81
2024/04/14 06:24:05;;;;;;;49.45;21.48;;;13.40;99.90;;;;;;5378138;26;20588;-80
2024/04/14 06:26:30;;;;;;;29.02;15.43;;;13.60;99.90;;;;;;5380407;26;20008;-81
2024/04/14 06:28:56;;;;;;;19.75;13.50;;;13.70;99.90;;;;;;5379620;26;20336;-81
2024/04/14 06:31:22;;;;;;;22.85;14.40;;;13.90;99.90;;;;;;5380422;26;20396;-80
2024/04/14 06:33:48;;;;;;;34.10;18.08;;;14.00;99.90;;;;;;5372791;26;20023;-80
2024/04/14 06:36:13;;;;;;;23.58;13.43;;;14.20;99.90;;;;;;5378357;26;20015;-80
2024/04/14 06:38:44;;;;;;;36.15;17.65;;;14.30;99.90;;;;;;5374170;26;20056;-81
2024/04/14 06:41:12;;;;;;;24.83;14.85;;;14.50;99.90;;;;;;5369844;26;20016;-81
2024/04/14 06:43:38;;;;;;;32.30;15.38;;;14.60;99.90;;;;;;5338902;26;19994;-80
2024/04/14 06:46:04;;;;;;;29.48;15.27;;;14.80;99.90;;;;;;5369307;26;20013;-81
2024/04/14 06:48:30;;;;;;;34.50;17.60;;;14.90;99.90;;;;;;5347978;26;20012;-81
2024/04/14 06:50:55;;;;;;;61.58;30.83;;;15.10;99.90;;;;;;5352533;26;20089;-80
2024/04/14 06:53:21;;;;;;;27.80;16.33;;;15.20;99.90;;;;;;5350827;26;20012;-81
2024/04/14 06:55:47;;;;;;;20.25;11.25;;;15.40;99.90;;;;;;5345379;26;20001;-80
2024/04/14 06:58:14;;;;;;;21.25;12.52;;;15.50;99.90;;;;;;5379368;26;20020;-80
2024/04/14 07:00:39;;;;;;;24.25;13.25;;;15.70;99.90;;;;;;5379861;26;20403;-80
2024/04/14 07:03:05;;;;;;;22.65;13.10;;;15.80;99.90;;;;;;5379757;26;20020;-81
2024/04/14 07:05:31;;;;;;;17.52;11.75;;;15.90;99.90;;;;;;5375409;26;20783;-80
2024/04/14 07:07:56;;;;;;;20.08;8.50;;;16.00;99.90;;;;;;5358605;26;20061;-80
2024/04/14 07:10:22;;;;;;;14.00;9.30;;;16.10;99.90;;;;;;5364754;26;20000;-81
2024/04/14 07:12:48;;;;;;;17.58;8.32;;;16.20;99.90;;;;;;5371418;26;20440;-81
2024/04/14 07:15:13;;;;;;;12.13;8.15;;;16.40;98.40;;;;;;5377707;26;20048;-81
2024/04/14 07:17:39;;;;;;;8.35;5.88;;;16.50;96.70;;;;;;5379030;26;20004;-81
2024/04/14 07:20:05;;;;;;;10.05;6.50;;;16.70;94.20;;;;;;5374044;26;20000;-81
2024/04/14 07:22:31;;;;;;;10.93;6.60;;;16.80;92.80;;;;;;5347085;26;20009;-81
2024/04/14 07:24:59;;;;;;;13.98;6.82;;;16.90;89.40;;;;;;5362744;26;20026;-81
2024/04/14 07:27:25;;;;;;;13.02;6.35;;;17.10;87.00;;;;;;5368379;26;20019;-81
2024/04/14 07:29:51;;;;;;;9.00;4.93;;;17.30;86.30;;;;;;5377819;26;20384;-80
2024/04/14 07:32:16;;;;;;;8.88;4.75;;;17.40;82.70;;;;;;5377168;26;20001;-81
2024/04/14 07:34:42;;;;;;;9.23;5.70;;;17.60;82.40;;;;;;5372587;26;19993;-81
2024/04/14 07:37:08;;;;;;;9.63;5.28;;;17.70;82.10;;;;;;5374965;26;19996;-80
2024/04/14 07:39:34;;;;;;;13.05;6.07;;;17.80;80.00;;;;;;5371176;26;20009;-79
2024/04/14 07:42:02;;;;;;;14.27;5.75;;;17.90;81.00;;;;;;5368917;26;20016;-79
2024/04/14 07:44:28;;;;;;;13.30;5.43;;;18.00;79.70;;;;;;5375205;26;20028;-80
2024/04/14 07:46:53;;;;;;;7.45;5.13;;;17.90;77.70;;;;;;5377455;26;20019;-79
2024/04/14 07:49:19;;;;;;;7.28;5.07;;;18.00;76.80;;;;;;5368196;26;20012;-81
2024/04/14 07:51:44;;;;;;;7.72;5.30;;;18.10;76.90;;;;;;5375543;26;20019;-81
2024/04/14 07:54:10;;;;;;;8.65;5.28;;;18.20;75.80;;;;;;5367785;26;20010;-80
2024/04/14 07:56:37;;;;;;;7.75;5.22;;;18.40;75.80;;;;;;5380288;26;20441;-80
2024/04/14 07:59:04;;;;;;;6.22;4.10;;;18.50;75.60;;;;;;5376958;26;20008;-80
2024/04/14 08:01:30;;;;;;;7.82;3.92;;;18.50;73.70;;;;;;5364372;26;20442;-79
2024/04/14 08:03:56;;;;;;;8.82;4.47;;;18.50;72.30;;;;;;5362195;26;20009;-78
2024/04/14 08:06:22;;;;;;;7.18;4.32;;;18.70;73.40;;;;;;5378679;26;20011;-79
2024/04/14 08:08:47;;;;;;;6.60;4.85;;;18.80;72.50;;;;;;5372244;26;20020;-80
2024/04/14 08:11:13;;;;;;;10.52;4.80;;;19.00;71.80;;;;;;5377412;26;20012;-79
2024/04/14 08:13:39;;;;;;;8.77;5.03;;;19.20;72.00;;;;;;5364215;26;20411;-79
2024/04/14 08:16:06;;;;;;;6.00;4.15;;;19.30;71.20;;;;;;5376964;26;20047;-79
2024/04/14 08:18:31;;;;;;;7.63;4.25;;;19.60;72.50;;;;;;5381626;26;20001;-80
2024/04/14 08:21:02;;;;;;;5.10;3.80;;;19.70;70.30;;;;;;5381198;26;20008;-79
2024/04/14 08:23:28;;;;;;;8.02;4.47;;;19.90;69.40;;;;;;5344868;26;20019;-79
2024/04/14 08:25:53;;;;;;;10.80;4.28;;;20.20;68.50;;;;;;5368851;26;20000;-79
2024/04/14 08:28:19;;;;;;;7.40;3.92;;;20.40;67.70;;;;;;5369495;26;20013;-78
2024/04/14 08:30:45;;;;;;;7.68;4.22;;;20.40;64.90;;;;;;5346886;26;20014;-79
2024/04/14 08:33:11;;;;;;;7.32;4.05;;;20.50;66.20;;;;;;5341848;26;20083;-78
2024/04/14 08:35:36;;;;;;;4.18;2.92;;;20.70;65.00;;;;;;5324353;26;20444;-78
2024/04/14 08:38:02;;;;;;;6.32;3.38;;;20.70;63.30;;;;;;5341368;26;20011;-78
2024/04/14 08:40:28;;;;;;;9.80;3.95;;;20.70;61.90;;;;;;5347173;26;20020;-79
2024/04/14 08:42:54;;;;;;;4.88;2.85;;;20.70;61.90;;;;;;5344820;26;20043;-79
2024/04/14 08:45:24;;;;;;;7.35;3.60;;;20.70;62.00;;;;;;5342872;26;20006;-79
2024/04/14 08:47:53;;;;;;;8.90;3.88;;;20.80;62.20;;;;;;5343847;26;20020;-79
2024/04/14 08:50:23;;;;;;;7.95;4.13;;;20.80;61.60;;;;;;5342827;26;20036;-81
2024/04/14 08:52:48;;;;;;;5.60;3.25;;;20.90;62.40;;;;;;5379826;26;20012;-78
2024/04/14 08:55:14;;;;;;;7.13;4.60;;;20.90;62.40;;;;;;5378087;26;20004;-78
2024/04/14 08:57:41;;;;;;;5.63;3.67;;;20.90;61.20;;;;;;5379795;26;20032;-78
2024/04/14 09:00:12;;;;;;;8.13;3.75;;;20.80;61.10;;;;;;5398747;26;20016;-79
2024/04/14 09:02:42;;;;;;;5.57;3.22;;;20.90;61.40;;;;;;5380713;26;20081;-79
2024/04/14 09:05:11;;;;;;;6.47;3.13;;;21.00;61.50;;;;;;5373762;26;20000;-79
2024/04/14 09:07:37;;;;;;;5.47;3.10;;;21.10;61.60;;;;;;5365587;26;20015;-81
2024/04/14 09:10:04;;;;;;;6.03;3.95;;;21.10;61.20;;;;;;5370005;26;20008;-79
2024/04/14 09:12:30;;;;;;;6.00;3.13;;;21.00;60.60;;;;;;5378378;26;20089;-79
2024/04/14 09:14:56;;;;;;;5.68;3.55;;;21.00;61.20;;;;;;5380739;26;20020;-80
2024/04/14 09:17:21;;;;;;;6.30;3.97;;;21.10;61.60;;;;;;5380333;26;20018;-79
2024/04/14 09:19:48;;;;;;;5.10;3.90;;;21.00;61.50;;;;;;5379161;26;20327;-80
2024/04/14 09:22:14;;;;;;;5.50;3.45;;;21.00;60.80;;;;;;5376272;26;20008;-80
2024/04/14 09:24:40;;;;;;;8.23;3.72;;;21.10;61.60;;;;;;5378730;26;20023;-79
2024/04/14 09:27:06;;;;;;;4.90;3.50;;;21.00;60.80;;;;;;5381107;26;20008;-79
2024/04/14 09:29:33;;;;;;;5.30;3.38;;;21.00;60.60;;;;;;5381467;26;20055;-79
2024/04/14 09:31:59;;;;;;;6.28;3.67;;;21.10;62.40;;;;;;5370183;26;20081;-79
2024/04/14 09:34:26;;;;;;;5.07;3.50;;;21.30;62.40;;;;;;5381342;26;19992;-79
2024/04/14 09:36:52;;;;;;;4.20;3.30;;;21.30;61.90;;;;;;5381112;26;20066;-78
2024/04/14 09:39:19;;;;;;;8.52;3.75;;;21.50;62.70;;;;;;5373421;26;20017;-78
2024/04/14 09:41:45;;;;;;;4.85;3.15;;;21.30;60.80;;;;;;5365564;26;20036;-78
2024/04/14 09:44:12;;;;;;;6.03;3.42;;;21.40;61.50;;;;;;5350956;26;20012;-79
2024/04/14 09:46:38;;;;;;;6.03;3.65;;;21.60;62.30;;;;;;5381191;26;20016;-79
2024/04/14 09:49:07;;;;;;;7.60;3.67;;;21.60;61.20;;;;;;5340951;26;20009;-78
2024/04/14 09:51:35;;;;;;;5.13;3.55;;;21.80;61.80;;;;;;5368469;26;20004;-77
2024/04/14 09:54:02;;;;;;;4.53;3.75;;;21.90;61.20;;;;;;5370183;26;20055;-78
2024/04/14 09:56:29;;;;;;;6.93;3.40;;;21.90;60.80;;;;;;5366313;26;20015;-78
2024/04/14 09:58:55;;;;;;;8.45;3.88;;;21.90;61.50;;;;;;5378298;26;20425;-78
2024/04/14 10:01:34;;;;;;;4.32;3.20;;;21.90;61.40;;;;;;5381189;26;19996;-79
2024/04/14 10:04:01;;;;;;;11.05;3.92;;;21.90;61.50;;;;;;5370258;26;20032;-79
2024/04/14 10:06:29;;;;;;;7.45;3.90;;;21.90;61.50;;;;;;5361523;26;20009;-79
2024/04/14 10:08:55;;;;;;;11.15;3.75;;;21.80;61.00;;;;;;5368051;26;20024;-78
2024/04/14 10:11:23;;;;;;;9.98;3.15;;;21.70;61.10;;;;;;5380436;26;20012;-78
2024/04/14 10:13:50;;;;;;;7.00;3.60;;;21.50;61.40;;;;;;5380984;26;20036;-81
2024/04/14 10:16:20;;;;;;;6.10;3.33;;;21.40;62.30;;;;;;5378376;26;20019;-79
2024/04/14 10:18:47;;;;;;;5.53;3.35;;;21.40;62.50;;;;;;5376871;26;20476;-78
2024/04/14 10:21:15;;;;;;;7.45;4.10;;;21.50;62.90;;;;;;5375454;26;20437;-79
2024/04/14 10:23:56;;;;;;;5.28;3.33;;;21.60;63.70;;;;;;5355158;26;20012;-78
2024/04/14 10:26:22;;;;;;;6.05;3.20;;;21.70;63.50;;;;;;5403267;26;20024;-79
2024/04/14 10:28:52;;;;;;;6.72;3.83;;;21.80;63.20;;;;;;5379779;26;20438;-78
2024/04/14 10:31:34;;;;;;;6.90;3.95;;;21.70;63.00;;;;;;5345273;26;20397;-78
2024/04/14 10:34:08;;;;;;;9.98;3.85;;;21.40;62.50;;;;;;5368180;26;20020;-79
2024/04/14 10:36:35;;;;;;;7.03;3.90;;;21.50;63.00;;;;;;5380479;26;20008;-79
2024/04/14 10:39:01;;;;;;;5.97;3.55;;;21.60;62.60;;;;;;5367851;26;20019;-79
2024/04/14 10:41:28;;;;;;;6.72;3.92;;;21.80;63.70;;;;;;5361850;26;20017;-77
2024/04/14 10:43:54;;;;;;;7.03;3.78;;;21.80;62.20;;;;;;5357482;26;20030;-79
2024/04/14 10:46:20;;;;;;;5.97;3.72;;;21.80;62.10;;;;;;5379141;26;20012;-79
2024/04/14 10:48:46;;;;;;;5.28;3.25;;;22.00;63.10;;;;;;5377561;26;20338;-79
2024/04/14 10:51:13;;;;;;;5.93;3.65;;;22.20;63.50;;;;;;5364963;26;20024;-79
2024/04/14 10:53:39;;;;;;;5.95;4.65;;;22.40;63.30;;;;;;5354775;26;20012;-78
2024/04/14 10:56:09;;;;;;;6.82;4.32;;;22.40;62.30;;;;;;5361444;26;20066;-78
2024/04/14 10:58:36;;;;;;;8.38;3.88;;;22.20;61.90;;;;;;5379803;26;20081;-77
2024/04/14 11:01:02;;;;;;;4.75;3.58;;;22.40;61.90;;;;;;5379831;26;20344;-77
2024/04/14 11:03:29;;;;;;;6.90;4.40;;;22.30;61.20;;;;;;5373215;26;20008;-75
2024/04/14 11:05:55;;;;;;;7.30;3.67;;;22.30;61.40;;;;;;5376093;26;20019;-75
2024/04/14 11:08:23;;;;;;;6.82;4.15;;;22.10;60.90;;;;;;5375093;26;20008;-75
2024/04/14 11:10:52;;;;;;;9.02;3.83;;;22.40;62.10;;;;;;5378214;26;20000;-77
2024/04/14 11:13:20;;;;;;;6.55;3.42;;;22.40;61.50;;;;;;5377137;26;20004;-76
2024/04/14 11:15:46;;;;;;;3.90;3.35;;;22.40;60.90;;;;;;5358456;26;20009;-75
2024/04/14 11:18:12;;;;;;;8.70;3.78;;;22.60;60.20;;;;;;5352462;26;20023;-76
2024/04/14 11:20:46;;;;;;;6.15;3.83;;;22.30;59.80;;;;;;5353475;26;20723;-75
2024/04/14 11:28:20;;;;;;;5.68;2.88;;;22.40;59.30;;;;;;6380604;21;20010;-74
2024/04/14 11:30:46;;;;;;;5.63;3.08;;;22.40;58.70;;;;;;5397369;26;20013;-72
2024/04/14 11:33:12;;;;;;;5.13;3.00;;;22.40;59.30;;;;;;5440022;26;20020;-73
2024/04/14 11:35:38;;;;;;;3.90;2.67;;;22.40;60.00;;;;;;5456149;26;20010;-71
2024/04/14 11:38:05;;;;;;;7.30;2.75;;;22.40;59.50;;;;;;5489137;26;20022;-73
2024/04/14 11:40:30;;;;;;;9.57;2.80;;;22.20;57.60;;;;;;5490273;26;20042;-72
2024/04/14 11:42:56;;;;;;;2.92;2.40;;;22.20;57.80;;;;;;5487139;26;20010;-71
2024/04/14 11:45:21;;;;;;;3.95;2.45;;;22.20;58.10;;;;;;5471843;26;20443;-72
2024/04/14 11:47:47;;;;;;;6.03;2.80;;;22.20;57.40;;;;;;5489367;26;20002;-73
2024/04/14 11:50:13;;;;;;;4.20;2.42;;;22.40;57.30;;;;;;5483384;26;20010;-72
2024/04/14 11:52:39;;;;;;;5.70;3.15;;;22.50;57.40;;;;;;5517667;26;20025;-72
2024/04/14 11:55:06;;;;;;;5.18;2.67;;;22.30;56.70;;;;;;5468459;26;20015;-73
2024/04/14 11:57:32;;;;;;;6.03;2.42;;;22.20;56.40;;;;;;5482863;26;20007;-72
2024/04/14 11:59:58;;;;;;;4.53;2.80;;;21.80;56.70;;;;;;5483833;26;20079;-72
2024/04/14 12:02:26;;;;;;;4.03;3.05;;;21.70;57.60;;;;;;5483036;26;20015;-72
2024/04/14 12:04:52;;;;;;;4.43;3.03;;;21.70;58.10;;;;;;5479505;26;20006;-71
2024/04/14 12:07:18;;;;;;;6.80;3.08;;;21.70;58.40;;;;;;5476409;26;20392;-73
2024/04/14 12:09:44;;;;;;;6.93;2.85;;;21.70;59.00;;;;;;5478406;26;20132;-73
2024/04/14 12:12:11;;;;;;;4.72;2.47;;;21.60;58.40;;;;;;5456082;26;20336;-72
2024/04/14 12:14:37;;;;;;;3.33;3.00;;;21.60;58.70;;;;;;5465319;26;20010;-72
2024/04/14 12:17:03;;;;;;;9.90;3.83;;;21.50;59.40;;;;;;5466951;26;19990;-74
2024/04/14 12:19:28;;;;;;;6.93;3.80;;;21.80;59.80;;;;;;5478940;26;20055;-73
2024/04/14 12:21:54;;;;;;;5.10;3.05;;;21.80;58.80;;;;;;5482118;26;20017;-73
2024/04/14 12:24:20;;;;;;;7.20;3.40;;;21.80;59.20;;;;;;5475360;26;20455;-73
2024/04/14 12:26:45;;;;;;;7.05;3.60;;;21.70;59.10;;;;;;5479458;26;20013;-73
2024/04/14 12:29:11;;;;;;;8.55;3.58;;;21.70;58.70;;;;;;5489262;26;20804;-73
2024/04/14 12:31:37;;;;;;;7.05;3.38;;;21.70;58.50;;;;;;5477816;26;20017;-74
2024/04/14 12:34:02;;;;;;;7.47;4.18;;;21.60;58.30;;;;;;5478614;26;20002;-73
2024/04/14 12:36:29;;;;;;;3.22;2.75;;;21.60;58.40;;;;;;5467922;26;20066;-73
2024/04/14 12:38:54;;;;;;;8.38;3.40;;;21.50;58.30;;;;;;5426050;26;20428;-73